Terminal Aerodrome Forecast
Issued by NWS Binghamton, NY

Home | Current Version | Previous Version | Text Only | Print | Product List | Glossary On
Versions: 1 2 3 4 5 6 7 8 9 10 11 12 13 14 15 16 17 18 19 20 21
000
FTUS41 KBGM 061723
TAFBGM
TAF
KBGM 061723Z 0618/0718 15004KT P6SM SCT030 OVC040
      TEMPO 0618/0620 BKN030 OVC040
     FM070000 18010KT P6SM OVC025
     FM070500 18010KT P6SM OVC015
     FM070900 17006KT 4SM BR OVC007
     FM071500 21006KT 6SM HZ BKN050=

USA.gov is the U.S. government's official web portal to all federal, state and local government web resources and services.